Time;durP1;ratioP1;P1;durP2;ratioP2;P2;SDS_P1;SDS_P2;PMS_P1;PMS_P2;Temp;Humidity;BMP_temperature;BMP_pressure;BME280_temperature;BME280_humidity;BME280_pressure;Samples;Min_cycle;Max_cycle;Signal;HPM_P1;HPM_P2
2021/12/13 00:04:22;;;;;;;81.60;32.60;;;;;;;-2.69;82.17;100673.63;228593;1193;142509;-65
2021/12/13 00:09:28;;;;;;;85.00;29.30;;;;;;;-2.77;81.93;100669.11;228349;1193;140392;-66
2021/12/13 00:14:36;;;;;;;90.00;30.90;;;;;;;-2.78;82.01;100672.66;228884;1193;140498;-65
2021/12/13 00:19:44;;;;;;;71.70;29.10;;;;;;;-2.83;81.73;100671.19;228167;1193;141090;-66
2021/12/13 00:25:02;;;;;;;44.90;19.80;;;;;;;-2.91;81.82;100664.55;228250;1193;143806;-65
2021/12/13 00:30:27;;;;;;;56.70;24.60;;;;;;;-3.02;81.75;100668.31;228098;1193;140398;-66
2021/12/13 00:35:54;;;;;;;55.50;22.90;;;;;;;-3.17;81.59;100681.94;227788;1193;142960;-68
2021/12/13 00:41:04;;;;;;;50.70;23.10;;;;;;;-3.20;81.80;100685.10;229390;1193;141676;-68
2021/12/13 00:46:14;;;;;;;66.60;24.50;;;;;;;-3.20;82.08;100693.48;229498;1193;141311;-66
2021/12/13 00:51:27;;;;;;;61.50;25.60;;;;;;;-3.23;81.92;100705.18;228572;1193;139584;-66
2021/12/13 00:56:49;;;;;;;54.50;22.30;;;;;;;-3.26;81.83;100714.31;229215;1193;139903;-67
2021/12/13 01:02:06;;;;;;;61.40;22.30;;;;;;;-3.34;81.70;100714.27;229122;1193;139726;-69
2021/12/13 01:07:33;;;;;;;51.70;23.50;;;;;;;-3.28;81.91;100715.67;230197;1193;141269;-68
2021/12/13 01:12:37;;;;;;;47.00;18.30;;;;;;;-3.30;81.71;100716.00;230461;1193;140035;-73
2021/12/13 01:23:08;;;;;;;48.30;19.60;;;;;;;-3.31;81.67;100709.30;230356;1193;140922;-70
2021/12/13 01:28:18;;;;;;;62.80;23.50;;;;;;;-3.24;81.79;100711.18;228613;1193;140127;-68
2021/12/13 01:33:25;;;;;;;50.70;23.10;;;;;;;-3.24;81.60;100704.92;230327;1193;140373;-68
2021/12/13 01:38:45;;;;;;;54.50;24.90;;;;;;;-3.32;81.33;100704.87;228462;1193;140244;-66
2021/12/13 01:43:59;;;;;;;54.00;22.40;;;;;;;-3.40;81.42;100708.98;228304;1193;222085;-68
2021/12/13 01:49:03;;;;;;;48.20;22.40;;;;;;;-3.43;81.51;100701.02;229422;1193;142393;-69
2021/12/13 01:54:21;;;;;;;55.40;24.00;;;;;;;-3.45;81.45;100697.73;229290;1193;140659;-67
2021/12/13 02:04:40;;;;;;;78.90;31.30;;;;;;;-3.54;81.56;100692.40;228635;1193;221651;-70
2021/12/13 02:09:45;;;;;;;64.20;22.80;;;;;;;-3.55;81.60;100700.63;228230;1193;143216;-68
2021/12/13 02:16:56;;;;;;;65.20;28.40;;;;;;;-3.55;81.46;100709.15;228838;1193;140040;-65
2021/12/13 02:20:44;;;;;;;62.80;27.70;;;;;;;-3.59;81.75;100707.00;229111;1193;140400;-66
2021/12/13 02:25:52;;;;;;;73.80;30.70;;;;;;;-3.60;81.97;100700.13;228566;1193;140163;-65
2021/12/13 02:31:09;;;;;;;67.30;26.50;;;;;;;-3.58;82.02;100699.79;228732;1193;140093;-65
2021/12/13 02:36:18;;;;;;;64.00;20.60;;;;;;;-3.59;82.21;100693.61;228480;1193;140313;-65
2021/12/13 02:41:25;;;;;;;70.50;29.10;;;;;;;-3.57;81.96;100693.67;229124;1193;142086;-65
2021/12/13 02:46:28;;;;;;;63.60;27.30;;;;;;;-3.54;81.85;100686.45;229571;1193;141350;-68
2021/12/13 02:51:54;;;;;;;53.70;21.40;;;;;;;-3.54;81.69;100691.66;229333;1193;141133;-65
2021/12/13 02:57:06;;;;;;;58.20;26.40;;;;;;;-3.59;81.81;100697.99;229065;1193;142269;-65
2021/12/13 03:02:23;;;;;;;62.20;26.10;;;;;;;-3.59;82.03;100698.30;227913;1187;140286;-65
2021/12/13 03:07:39;;;;;;;61.80;25.50;;;;;;;-3.56;82.01;100690.48;229657;1193;142095;-66
2021/12/13 03:12:42;;;;;;;61.70;27.00;;;;;;;-3.53;81.81;100685.34;230261;1193;141025;-68
2021/12/13 03:17:57;;;;;;;55.70;24.40;;;;;;;-3.53;81.93;100676.48;230290;1193;139568;-70
2021/12/13 03:23:53;;;;;;;;;;;;;;;;;;;;;
2021/12/13 03:29:25;;;;;;;54.10;25.10;;;;;;;-3.51;81.93;100676.32;230242;1193;141327;-68
2021/12/13 03:34:32;;;;;;;54.60;26.80;;;;;;;-3.44;81.92;100675.42;230399;1193;139858;-70
2021/12/13 03:39:48;;;;;;;53.30;21.20;;;;;;;-3.39;81.92;100682.67;229617;1193;139865;-67
2021/12/13 03:44:56;;;;;;;46.40;19.20;;;;;;;-3.42;81.84;100681.02;230104;1193;140989;-68
2021/12/13 03:50:12;;;;;;;55.90;24.40;;;;;;;-3.46;81.69;100674.23;228321;1193;236610;-69
2021/12/13 03:55:20;;;;;;;56.30;25.00;;;;;;;-3.41;81.83;100679.01;228403;1193;139872;-69
2021/12/13 04:00:27;;;;;;;55.60;25.00;;;;;;;-3.38;81.87;100678.59;228274;1193;140869;-67
2021/12/13 04:05:31;;;;;;;60.50;25.70;;;;;;;-3.38;82.04;100674.80;228240;1193;139842;-69
2021/12/13 04:10:39;;;;;;;52.00;24.70;;;;;;;-3.41;82.09;100674.12;228351;1193;139280;-69
2021/12/13 04:16:11;;;;;;;;;;;;;;;-3.46;82.10;100664.63;228423;1193;158630;-71
2021/12/13 04:21:16;;;;;;;62.60;25.00;;;;;;;-3.54;81.97;100668.59;228991;1193;127632;-66
2021/12/13 04:26:20;;;;;;;51.60;23.00;;;;;;;-3.53;81.96;100666.27;228321;1193;139927;-66
2021/12/13 04:31:27;;;;;;;48.90;22.50;;;;;;;-3.58;81.70;100663.50;228391;1193;142653;-69
2021/12/13 04:36:37;;;;;;;49.70;22.20;;;;;;;-3.72;81.58;100670.52;228414;1193;139518;-69
2021/12/13 04:42:05;;;;;;;53.10;22.80;;;;;;;-3.87;81.41;100677.27;228802;1193;141647;-68
2021/12/13 04:47:14;;;;;;;52.80;24.50;;;;;;;-3.99;81.51;100676.66;228560;1193;139682;-71
2021/12/13 04:52:20;;;;;;;54.60;25.80;;;;;;;-4.09;81.25;100678.61;228795;1193;141761;-67
2021/12/13 04:57:24;;;;;;;62.20;26.70;;;;;;;-4.15;81.50;100680.47;228642;1193;140932;-71
2021/12/13 05:02:29;;;;;;;42.00;22.20;;;;;;;-4.21;81.54;100683.89;228595;1193;142586;-69
2021/12/13 05:07:33;;;;;;;68.10;29.40;;;;;;;-4.29;81.41;100683.01;229174;1193;141320;-71
2021/12/13 05:12:37;;;;;;;53.60;23.90;;;;;;;-4.29;81.50;100690.23;229060;1193;141184;-67
2021/12/13 05:17:44;;;;;;;59.90;23.00;;;;;;;-4.29;81.58;100694.42;230351;1187;140504;-70
2021/12/13 05:23:01;;;;;;;45.60;20.70;;;;;;;-4.31;81.37;100698.95;230463;1193;141691;-71
2021/12/13 05:28:12;;;;;;;43.30;17.60;;;;;;;-4.35;81.26;100708.38;230215;1193;142996;-69
2021/12/13 05:33:18;;;;;;;75.50;28.10;;;;;;;-4.35;81.32;100707.58;229214;1193;140721;-69
2021/12/13 05:38:51;;;;;;;59.40;23.00;;;;;;;-4.31;81.47;100698.77;229788;1193;141752;-71
2021/12/13 05:44:01;;;;;;;49.80;20.40;;;;;;;-4.29;81.52;100701.35;229684;1193;231669;-70
2021/12/13 05:49:17;;;;;;;49.10;20.90;;;;;;;-4.30;81.46;100701.11;229492;1193;140174;-66
2021/12/13 05:54:31;;;;;;;61.60;29.20;;;;;;;-4.30;81.61;100701.59;228384;1193;140961;-70
2021/12/13 06:00:02;;;;;;;63.50;25.50;;;;;;;-4.25;81.65;100706.06;227678;1193;143421;-67
2021/12/13 06:05:40;;;;;;;47.70;19.50;;;;;;;-4.22;81.69;100709.68;228635;1193;140824;-68
2021/12/13 06:10:50;;;;;;;48.60;20.80;;;;;;;-4.26;81.85;100718.13;227789;1193;141055;-68
2021/12/13 06:15:57;;;;;;;56.10;23.20;;;;;;;-4.28;81.87;100723.98;228339;1193;140548;-65
2021/12/13 06:21:33;;;;;;;58.20;24.30;;;;;;;-4.29;81.62;100725.84;228488;1193;140486;-67
2021/12/13 06:26:39;;;;;;;54.20;21.90;;;;;;;-4.26;81.93;100735.27;228098;1193;142190;-67
2021/12/13 06:31:45;;;;;;;40.60;19.70;;;;;;;-4.25;82.17;100747.19;228625;1193;140345;-67
2021/12/13 06:36:52;;;;;;;34.50;15.00;;;;;;;-4.22;82.42;100757.56;227829;1193;140410;-68
2021/12/13 06:42:04;;;;;;;67.60;26.30;;;;;;;-4.17;82.51;100754.05;227954;1193;140727;-68
2021/12/13 06:47:10;;;;;;;62.90;23.00;;;;;;;-4.08;82.51;100759.28;227942;1193;141413;-67
2021/12/13 06:52:16;;;;;;;71.60;28.50;;;;;;;-4.03;82.13;100759.46;227617;1193;140913;-69
2021/12/13 06:57:42;;;;;;;64.80;26.80;;;;;;;-3.99;82.42;100759.11;228289;1193;140252;-67
2021/12/13 07:02:57;;;;;;;45.20;18.90;;;;;;;-3.92;82.68;100766.40;228665;1193;140548;-66
2021/12/13 07:08:03;;;;;;;72.10;27.20;;;;;;;-3.89;82.37;100772.38;229517;1193;141548;-66
2021/12/13 07:13:11;;;;;;;62.90;25.50;;;;;;;-3.76;82.63;100783.88;228997;1193;142075;-68
2021/12/13 07:18:28;;;;;;;;;;;;;;;-3.70;82.13;100787.09;229331;1193;141198;-69
2021/12/13 07:24:05;;;;;;;68.10;25.80;;;;;;;-3.65;82.36;100783.28;230183;1193;127268;-67
2021/12/13 07:29:18;;;;;;;64.30;30.90;;;;;;;-3.55;82.62;100783.70;230415;1193;162872;-68
2021/12/13 07:34:21;;;;;;;67.70;29.60;;;;;;;-3.38;82.38;100786.52;230149;1193;140364;-71
2021/12/13 07:39:29;;;;;;;49.50;22.40;;;;;;;-3.21;82.28;100790.92;229967;1193;140135;-68
2021/12/13 07:44:32;;;;;;;69.00;30.80;;;;;;;-3.13;82.12;100792.73;229582;1193;141279;-67
2021/12/13 07:49:42;;;;;;;64.50;30.70;;;;;;;-3.09;81.95;100792.17;229858;1193;141195;-67
2021/12/13 07:54:45;;;;;;;70.70;30.70;;;;;;;-2.97;81.93;100801.21;229335;1193;140710;-70
2021/12/13 07:59:48;;;;;;;66.90;30.90;;;;;;;-2.87;82.14;100799.83;228122;1193;142648;-69
2021/12/13 08:05:13;;;;;;;86.10;37.50;;;;;;;-2.76;82.12;100807.66;228867;1193;141066;-68
2021/12/13 08:10:50;;;;;;;78.70;36.20;;;;;;;-2.65;82.19;100803.09;228488;1193;144567;-70
2021/12/13 08:15:58;;;;;;;77.90;31.50;;;;;;;-2.52;82.02;100797.01;227738;1193;159595;-69
2021/12/13 08:21:09;;;;;;;68.40;29.00;;;;;;;-2.36;81.96;100797.61;229451;1193;141431;-66
2021/12/13 08:26:27;;;;;;;59.20;28.90;;;;;;;-2.30;81.84;100799.52;228522;1193;141115;-68
2021/12/13 08:31:34;;;;;;;60.20;27.30;;;;;;;-2.21;81.90;100808.05;228113;1193;141345;-69
2021/12/13 08:36:46;;;;;;;80.70;33.70;;;;;;;-2.10;81.89;100807.63;228248;1193;142462;-69
2021/12/13 08:42:11;;;;;;;71.10;30.00;;;;;;;-1.95;81.86;100817.55;228166;1193;142073;-68
2021/12/13 08:47:22;;;;;;;59.90;26.00;;;;;;;-1.81;81.66;100822.39;228909;1193;140832;-67
2021/12/13 08:52:32;;;;;;;73.60;32.90;;;;;;;-1.71;81.56;100828.36;228395;1193;139577;-66
2021/12/13 08:58:07;;;;;;;85.90;38.10;;;;;;;-1.56;81.34;100831.29;228879;1193;140010;-67
2021/12/13 09:03:42;;;;;;;71.00;34.10;;;;;;;-1.38;81.70;100828.70;228577;1193;141016;-68
2021/12/13 09:09:14;;;;;;;66.40;30.80;;;;;;;-1.27;81.46;100824.27;229380;1193;141108;-69
2021/12/13 09:14:22;;;;;;;95.20;37.80;;;;;;;-1.27;81.03;100823.60;229279;1193;141121;-69
2021/12/13 09:19:31;;;;;;;83.10;41.50;;;;;;;-1.26;80.95;100828.42;229391;1193;140900;-67
2021/12/13 09:24:55;;;;;;;81.10;37.40;;;;;;;-1.15;80.94;100830.59;230043;1193;141135;-69
2021/12/13 09:30:00;;;;;;;83.30;39.20;;;;;;;-1.07;80.92;100831.95;230088;1186;139596;-68
2021/12/13 09:35:31;;;;;;;95.50;44.50;;;;;;;-0.90;81.16;100835.73;230033;1193;140409;-76
2021/12/13 09:40:42;;;;;;;100.60;48.20;;;;;;;-0.57;81.10;100832.09;230327;1193;141827;-68
2021/12/13 09:45:54;;;;;;;84.30;43.90;;;;;;;-0.30;81.15;100834.36;228599;1192;162393;-66
2021/12/13 09:51:10;;;;;;;88.40;42.50;;;;;;;-0.09;80.79;100836.95;229670;1193;141004;-68
2021/12/13 09:56:18;;;;;;;79.70;36.80;;;;;;;0.02;80.30;100831.25;228103;1180;140879;-67
2021/12/13 10:01:29;;;;;;;90.80;42.60;;;;;;;0.03;79.74;100826.80;228628;1193;140960;-66
2021/12/13 10:06:56;;;;;;;66.70;36.20;;;;;;;-0.00;80.10;100828.33;228588;1193;142735;-67
2021/12/13 10:12:22;;;;;;;83.80;43.40;;;;;;;0.08;80.24;100829.72;228311;1193;140855;-67
2021/12/13 10:17:31;;;;;;;77.30;39.70;;;;;;;0.20;80.06;100832.72;228760;1193;140426;-67
2021/12/13 10:22:35;;;;;;;65.90;35.20;;;;;;;0.34;80.06;100833.89;228613;1193;141428;-71
2021/12/13 10:27:40;;;;;;;67.80;37.20;;;;;;;0.41;79.79;100831.73;227970;1193;140878;-69
2021/12/13 10:32:44;;;;;;;78.70;40.70;;;;;;;0.45;79.92;100838.11;228791;1193;139580;-68
2021/12/13 10:37:54;;;;;;;51.00;30.00;;;;;;;0.54;80.11;100830.31;228750;1193;139969;-70
2021/12/13 10:43:24;;;;;;;86.60;41.40;;;;;;;0.53;79.56;100825.84;228177;1193;140880;-67
2021/12/13 10:48:30;;;;;;;82.60;40.90;;;;;;;0.60;79.86;100824.46;228974;1193;141738;-67
2021/12/13 10:53:34;;;;;;;79.90;42.30;;;;;;;0.74;79.60;100833.52;228477;1193;152513;-69
2021/12/13 10:58:43;;;;;;;68.90;34.30;;;;;;;0.92;79.93;100838.60;228112;1193;140339;-69
2021/12/13 11:03:49;;;;;;;79.60;41.60;;;;;;;1.03;79.60;100832.30;229218;1193;149526;-67
2021/12/13 11:08:53;;;;;;;75.00;35.80;;;;;;;1.21;79.74;100830.02;228376;1193;236818;-67
2021/12/13 11:14:00;;;;;;;77.40;38.60;;;;;;;1.06;78.40;100830.57;227938;1193;142975;-67
2021/12/13 11:19:05;;;;;;;;;;;;;;;0.94;78.93;100821.89;229703;1193;139508;-69
2021/12/13 11:24:14;;;;;;;79.40;38.60;;;;;;;0.84;78.81;100818.31;230828;1193;126314;-71
2021/12/13 11:29:17;;;;;;;89.70;41.00;;;;;;;0.89;79.02;100815.90;230265;1193;140717;-71
2021/12/13 11:34:45;;;;;;;89.40;43.70;;;;;;;1.13;79.61;100814.54;230344;1193;139718;-69
2021/12/13 11:40:11;;;;;;;93.30;47.20;;;;;;;1.34;79.55;100808.02;229949;1193;139717;-70
2021/12/13 11:46:08;;;;;;;81.70;36.30;;;;;;;1.51;79.13;100810.63;230462;1193;140613;-70
2021/12/13 11:51:49;;;;;;;83.00;39.80;;;;;;;1.61;78.83;100815.27;228405;1193;141287;-70
2021/12/13 11:57:23;;;;;;;81.30;40.50;;;;;;;1.67;78.69;100815.14;229227;1193;140572;-70
2021/12/13 12:02:44;;;;;;;65.50;33.20;;;;;;;1.60;78.39;100811.89;227665;1193;140219;-69
2021/12/13 12:08:16;;;;;;;88.30;44.70;;;;;;;1.42;78.42;100810.83;228764;1193;140715;-67
2021/12/13 12:14:06;;;;;;;77.00;41.20;;;;;;;1.49;78.97;100808.91;227929;1193;163522;-72
2021/12/13 12:21:55;;;;;;;87.50;50.40;;;;;;;1.55;78.85;100802.70;231842;1211;660020;-67
2021/12/13 12:27:03;;;;;;;94.30;48.80;;;;;;;1.53;79.17;100804.33;228580;1196;139666;-69
2021/12/13 12:32:14;;;;;;;86.90;45.50;;;;;;;1.48;78.69;100808.44;227796;1196;138796;-68
2021/12/13 12:37:30;;;;;;;101.90;53.70;;;;;;;1.40;78.41;100810.66;226665;1196;139277;-66
2021/12/13 12:42:46;;;;;;;93.40;50.20;;;;;;;1.32;78.48;100820.41;227670;1196;139522;-68
2021/12/13 12:48:00;;;;;;;88.80;43.10;;;;;;;1.30;78.86;100820.52;227435;1196;138709;-70
2021/12/13 12:53:35;;;;;;;86.20;43.90;;;;;;;1.21;78.86;100818.44;227695;1194;144416;-68
2021/12/13 12:59:05;;;;;;;87.50;39.70;;;;;;;1.13;78.54;100816.96;228940;1193;140624;-68
2021/12/13 13:04:19;;;;;;;99.30;49.90;;;;;;;1.03;78.25;100816.55;227888;1194;139763;-69
2021/12/13 13:09:32;;;;;;;88.10;47.20;;;;;;;1.00;78.85;100818.58;228550;1195;139178;-70
2021/12/13 13:14:43;;;;;;;95.90;47.70;;;;;;;1.03;78.97;100817.40;229000;1193;139539;-68
2021/12/13 13:19:47;;;;;;;102.00;52.30;;;;;;;1.07;79.38;100820.32;228571;1193;139039;-69
2021/12/13 13:24:58;;;;;;;95.30;51.20;;;;;;;1.14;79.24;100825.42;229000;1193;139292;-69
2021/12/13 13:30:02;;;;;;;93.30;46.60;;;;;;;1.15;79.57;100837.14;229907;1194;139045;-68
2021/12/13 13:35:25;;;;;;;104.20;52.40;;;;;;;1.13;78.97;100834.99;229762;1193;138801;-67
2021/12/13 13:40:37;;;;;;;101.90;54.30;;;;;;;1.14;79.45;100836.31;229482;1193;140201;-70
2021/12/13 13:45:51;;;;;;;103.30;57.60;;;;;;;1.15;79.55;100844.11;230330;1193;140450;-69
2021/12/13 13:51:00;;;;;;;98.10;50.90;;;;;;;1.15;79.46;100847.59;230217;1193;138729;-69
2021/12/13 13:56:13;;;;;;;104.30;56.60;;;;;;;1.11;79.79;100850.40;230456;1194;139446;-69
2021/12/13 14:01:23;;;;;;;100.60;50.50;;;;;;;1.09;79.72;100849.08;230199;1193;139144;-69
2021/12/13 14:06:41;;;;;;;112.70;54.40;;;;;;;1.10;79.34;100849.16;228668;1193;141167;-68
2021/12/13 14:12:02;;;;;;;97.30;51.10;;;;;;;1.10;79.69;100850.71;228254;1193;141203;-68
2021/12/13 14:17:06;;;;;;;95.40;54.20;;;;;;;0.96;79.22;100848.67;227712;1193;140559;-66
2021/12/13 14:22:11;;;;;;;105.20;56.40;;;;;;;0.86;79.78;100852.13;228754;1194;139000;-66
2021/12/13 14:27:25;;;;;;;116.90;55.90;;;;;;;0.79;79.94;100851.05;228251;1195;141029;-66
2021/12/13 14:32:29;;;;;;;112.70;56.80;;;;;;;0.78;80.18;100857.56;228805;1195;140885;-67
2021/12/13 14:37:34;;;;;;;97.10;54.20;;;;;;;0.74;79.93;100864.76;229158;1193;141258;-70
2021/12/13 14:42:38;;;;;;;115.30;55.90;;;;;;;0.72;80.10;100873.24;228828;1187;139624;-67
2021/12/13 14:47:49;;;;;;;107.40;56.20;;;;;;;0.65;80.44;100876.47;228162;1194;139400;-68
2021/12/13 14:53:05;;;;;;;109.30;55.80;;;;;;;0.55;80.33;100882.98;227774;1193;139833;-67
2021/12/13 14:58:12;;;;;;;115.20;58.20;;;;;;;0.53;79.96;100886.54;227770;1194;140066;-69
2021/12/13 15:03:24;;;;;;;108.70;56.50;;;;;;;0.52;80.43;100888.56;227908;1195;139525;-67
2021/12/13 15:08:30;;;;;;;114.90;57.40;;;;;;;0.55;81.20;100894.61;229419;1195;139811;-69
2021/12/13 15:13:40;;;;;;;106.60;62.40;;;;;;;0.54;80.97;100899.91;228640;1195;139064;-66
2021/12/13 15:19:02;;;;;;;120.80;58.20;;;;;;;0.53;80.89;100903.52;227780;1195;139831;-66
2021/12/13 15:24:06;;;;;;;116.60;59.40;;;;;;;0.53;80.82;100910.13;229481;1194;139291;-67
2021/12/13 15:29:26;;;;;;;123.90;61.40;;;;;;;0.55;80.85;100924.30;227667;1195;163554;-65
2021/12/13 15:34:33;;;;;;;126.90;66.40;;;;;;;0.56;80.98;100925.77;229495;1195;141518;-71
2021/12/13 15:39:37;;;;;;;99.40;56.40;;;;;;;0.52;80.89;100929.32;228008;1195;141850;-68
2021/12/13 15:44:41;;;;;;;111.90;56.70;;;;;;;0.45;80.91;100929.23;229453;1195;139828;-67
2021/12/13 15:49:44;;;;;;;124.70;62.00;;;;;;;0.55;81.09;100929.38;230329;1195;140118;-70
2021/12/13 15:54:52;;;;;;;120.50;62.20;;;;;;;0.63;81.10;100932.81;230417;1194;139644;-67
2021/12/13 15:59:59;;;;;;;122.30;59.00;;;;;;;0.59;81.37;100931.84;229768;1195;140384;-68
2021/12/13 16:05:19;;;;;;;116.80;58.70;;;;;;;0.60;81.40;100938.35;229949;1195;140800;-65
2021/12/13 16:10:23;;;;;;;116.30;57.30;;;;;;;0.67;81.44;100943.59;230063;1195;150168;-68
2021/12/13 16:15:29;;;;;;;117.90;59.60;;;;;;;0.74;81.23;100940.52;229810;1195;139991;-70
2021/12/13 16:20:44;;;;;;;127.80;61.10;;;;;;;0.77;81.30;100932.23;228181;1195;139467;-67
2021/12/13 16:25:52;;;;;;;108.50;55.80;;;;;;;0.79;81.23;100936.09;226924;1195;141624;-67
2021/12/13 16:31:03;;;;;;;110.60;51.20;;;;;;;0.77;81.60;100941.69;229208;1195;139119;-68
2021/12/13 16:36:32;;;;;;;95.50;48.90;;;;;;;0.75;81.34;100933.69;226960;1196;139622;-69
2021/12/13 16:41:38;;;;;;;110.80;50.40;;;;;;;0.74;81.30;100937.27;229400;1195;141382;-68
2021/12/13 16:46:44;;;;;;;105.60;56.90;;;;;;;0.76;81.70;100939.67;227397;1195;139880;-67
2021/12/13 16:51:57;;;;;;;104.90;57.30;;;;;;;0.76;81.74;100933.54;228066;1195;140119;-69
2021/12/13 16:57:06;;;;;;;118.10;51.00;;;;;;;0.69;81.31;100930.90;227480;1196;139317;-68
2021/12/13 17:02:11;;;;;;;110.10;58.10;;;;;;;0.66;81.59;100930.44;228003;1195;139356;-68
2021/12/13 17:07:24;;;;;;;107.50;59.40;;;;;;;0.66;81.60;100929.35;229233;1195;140765;-68
2021/12/13 17:12:54;;;;;;;119.00;62.80;;;;;;;0.67;81.84;100931.92;229439;1194;139121;-68
2021/12/13 17:18:22;;;;;;;108.70;53.10;;;;;;;0.72;81.73;100939.90;227781;1195;140198;-67
2021/12/13 17:23:33;;;;;;;134.20;67.50;;;;;;;0.76;81.89;100937.58;228070;1195;141354;-67
2021/12/13 17:28:40;;;;;;;132.00;66.20;;;;;;;0.77;81.81;100935.55;228836;1195;141265;-68
2021/12/13 17:33:43;;;;;;;131.50;63.20;;;;;;;0.77;81.73;100933.43;227818;1195;140168;-67
2021/12/13 17:38:59;;;;;;;126.50;57.90;;;;;;;0.76;81.63;100941.56;228225;1195;140959;-69
2021/12/13 17:44:15;;;;;;;126.60;60.60;;;;;;;0.75;82.10;100947.24;229450;1194;140399;-70
2021/12/13 17:49:58;;;;;;;125.90;64.00;;;;;;;0.77;81.76;100945.73;228052;1194;140370;-68
2021/12/13 17:55:02;;;;;;;125.80;66.10;;;;;;;0.75;81.71;100948.69;229107;1198;139872;-68
2021/12/13 18:00:31;;;;;;;118.10;56.80;;;;;;;0.75;81.90;100947.83;229907;1195;140612;-70
2021/12/13 18:05:33;;;;;;;123.30;65.80;;;;;;;0.71;81.56;100949.19;230224;1193;140522;-77
2021/12/13 18:10:40;;;;;;;143.40;65.20;;;;;;;0.72;81.85;100947.73;229433;1193;140115;-68
2021/12/13 18:15:50;;;;;;;150.80;66.10;;;;;;;0.73;81.87;100949.08;229844;1195;140515;-67
2021/12/13 18:21:02;;;;;;;133.70;66.30;;;;;;;0.71;81.89;100943.46;228458;1190;139973;-66
2021/12/13 18:26:22;;;;;;;132.10;65.90;;;;;;;0.68;81.82;100948.41;229188;1193;140877;-67
2021/12/13 18:31:36;;;;;;;149.30;66.60;;;;;;;0.71;81.98;100952.23;228596;1195;141117;-65
2021/12/13 18:36:48;;;;;;;172.40;77.40;;;;;;;0.77;81.88;100956.69;228668;1193;140063;-66
2021/12/13 18:41:55;;;;;;;146.00;71.60;;;;;;;0.79;82.12;100956.05;227059;1195;139740;-65
2021/12/13 18:46:58;;;;;;;152.80;74.90;;;;;;;0.76;82.44;100961.36;228289;1195;139801;-66
2021/12/13 18:52:26;;;;;;;164.60;72.50;;;;;;;0.73;82.34;100963.75;228821;1193;139442;-68
2021/12/13 18:57:38;;;;;;;165.20;69.90;;;;;;;0.71;81.96;100960.79;227730;1193;139635;-68
2021/12/13 19:02:59;;;;;;;190.70;83.60;;;;;;;0.70;82.10;100959.27;228239;1195;139518;-69
2021/12/13 19:08:23;;;;;;;168.50;79.80;;;;;;;0.68;82.39;100958.39;227301;1195;140046;-69
2021/12/13 19:13:34;;;;;;;151.20;70.50;;;;;;;0.67;82.34;100954.46;229130;1187;138979;-67
2021/12/13 19:18:52;;;;;;;161.00;68.10;;;;;;;0.71;82.44;100962.34;229166;1194;140230;-67
2021/12/13 19:24:21;;;;;;;147.90;72.00;;;;;;;0.76;82.31;100963.23;229440;1195;223675;-67
2021/12/13 19:29:36;;;;;;;166.90;76.80;;;;;;;0.76;82.26;100972.91;229776;1193;140419;-69
2021/12/13 19:34:48;;;;;;;175.10;75.30;;;;;;;0.76;82.29;100974.33;228678;1193;139071;-68
2021/12/13 19:40:00;;;;;;;157.80;74.20;;;;;;;0.70;82.01;100978.14;229055;1193;139245;-67
2021/12/13 19:45:26;;;;;;;155.20;64.40;;;;;;;0.67;82.00;100975.46;229648;1193;140751;-68
2021/12/13 19:50:47;;;;;;;155.20;75.90;;;;;;;0.68;82.05;100984.98;230714;1192;139438;-68
2021/12/13 19:55:58;;;;;;;166.80;71.40;;;;;;;0.71;82.00;100985.13;230590;1193;140882;-70
2021/12/13 20:01:23;;;;;;;152.10;68.70;;;;;;;0.68;81.90;100979.91;230738;1193;140764;-71
2021/12/13 20:06:41;;;;;;;159.20;69.70;;;;;;;0.69;82.04;100978.27;230399;1193;139726;-70
2021/12/13 20:11:58;;;;;;;173.00;73.30;;;;;;;0.76;82.15;100976.61;230479;1193;140331;-71
2021/12/13 20:17:23;;;;;;;185.60;77.70;;;;;;;0.81;82.12;100973.02;229837;1193;141577;-67
2021/12/13 20:22:35;;;;;;;185.10;80.80;;;;;;;0.79;81.80;100973.49;228828;1192;138921;-71
2021/12/13 20:27:48;;;;;;;148.80;71.80;;;;;;;0.73;82.33;100975.98;228894;1193;139733;-68
2021/12/13 20:33:35;;;;;;;196.20;76.20;;;;;;;0.64;82.18;100977.13;229105;1192;139996;-67
2021/12/13 20:38:47;;;;;;;155.20;69.30;;;;;;;0.59;81.98;100979.95;229228;1192;139938;-68
2021/12/13 20:44:36;;;;;;;196.60;89.50;;;;;;;0.63;82.53;100977.89;229279;1192;139828;-69
2021/12/13 20:49:45;;;;;;;202.20;88.00;;;;;;;0.63;82.18;100974.27;227841;1193;139055;-67
2021/12/13 20:55:16;;;;;;;170.00;80.10;;;;;;;0.58;82.26;100973.73;229638;1192;140271;-68
2021/12/13 21:00:28;;;;;;;178.90;75.10;;;;;;;0.52;82.21;100974.75;229326;1192;140932;-69
2021/12/13 21:05:50;;;;;;;177.50;81.00;;;;;;;0.56;82.37;100979.99;228502;1192;221627;-66
2021/12/13 21:10:59;;;;;;;201.70;92.00;;;;;;;0.57;82.37;100980.27;228610;1192;140372;-67
2021/12/13 21:16:27;;;;;;;205.30;90.20;;;;;;;0.51;82.51;100976.13;229410;1192;139815;-69
2021/12/13 21:21:55;;;;;;;155.30;76.40;;;;;;;0.43;82.37;100980.83;228801;1193;139474;-66
2021/12/13 21:27:05;;;;;;;178.80;77.80;;;;;;;0.36;82.33;100984.80;229501;1192;140201;-66
2021/12/13 21:32:16;;;;;;;186.20;81.30;;;;;;;0.38;82.95;100979.02;228882;1193;139280;-65
2021/12/13 21:42:51;;;;;;;192.70;91.00;;;;;;;0.48;83.05;100974.25;230906;1192;141004;-71
2021/12/13 21:48:04;;;;;;;191.20;78.80;;;;;;;0.49;82.93;100970.86;229553;1192;139192;-67
2021/12/13 21:53:24;;;;;;;184.90;74.30;;;;;;;0.51;82.54;100959.34;228147;1193;141979;-67
2021/12/13 21:58:38;;;;;;;187.00;86.70;;;;;;;0.51;82.60;100958.89;229667;1193;139991;-71
2021/12/13 22:03:41;;;;;;;186.40;87.50;;;;;;;0.55;82.98;100954.36;230875;1192;140219;-68
2021/12/13 22:08:52;;;;;;;181.60;72.10;;;;;;;0.60;82.65;100955.85;230188;1192;139849;-70
2021/12/13 22:14:03;;;;;;;191.30;87.80;;;;;;;0.67;82.74;100962.89;228809;1192;141298;-65
2021/12/13 22:19:14;;;;;;;176.30;81.70;;;;;;;0.70;82.69;100963.36;229665;1192;141291;-65
2021/12/13 22:24:33;;;;;;;163.80;77.50;;;;;;;0.66;82.46;100971.02;229900;1192;140771;-68
2021/12/13 22:29:38;;;;;;;182.10;72.00;;;;;;;0.60;82.55;100972.41;229401;1177;151333;-66
2021/12/13 22:35:18;;;;;;;173.10;83.50;;;;;;;0.64;82.59;100975.97;229226;1192;139751;-66
2021/12/13 22:40:48;;;;;;;179.80;79.80;;;;;;;0.63;82.73;100972.02;228292;1192;141059;-66
2021/12/13 22:45:57;;;;;;;182.50;86.60;;;;;;;0.55;82.57;100970.11;229790;1192;139269;-65
2021/12/13 22:51:05;;;;;;;198.80;84.00;;;;;;;0.49;82.86;100962.95;228768;1192;139789;-67
2021/12/13 22:56:15;;;;;;;190.00;72.70;;;;;;;0.48;82.87;100957.72;229398;1192;139060;-70
2021/12/13 23:01:26;;;;;;;186.00;89.80;;;;;;;0.55;82.81;100956.88;228808;1192;140139;-69
2021/12/13 23:06:30;;;;;;;187.20;80.80;;;;;;;0.59;82.87;100961.55;228167;1192;140833;-65
2021/12/13 23:17:03;;;;;;;181.30;76.50;;;;;;;0.47;83.08;100949.02;227814;1192;139418;-67
2021/12/13 23:22:11;;;;;;;195.30;74.50;;;;;;;0.44;83.14;100947.91;228978;1192;139635;-67
2021/12/13 23:27:20;;;;;;;180.30;76.70;;;;;;;0.49;82.97;100944.30;229350;1192;139414;-67
2021/12/13 23:32:28;;;;;;;189.50;82.30;;;;;;;0.53;83.02;100943.35;228745;1193;139212;-66
2021/12/13 23:37:36;;;;;;;175.90;75.50;;;;;;;0.58;83.15;100946.41;229073;1192;139783;-66
2021/12/13 23:48:07;;;;;;;182.10;70.00;;;;;;;0.49;83.51;100947.80;230569;1192;125313;-68
2021/12/13 23:53:14;;;;;;;191.60;80.10;;;;;;;0.56;83.39;100947.11;230310;1193;140790;-69